Sunflower Satsuma — JG5189 — position and weather

sailwx.info

Track history (hours):
 
Tides and Currents Weather Stations Pressure Air Temp Water Temp Dewpoint Dewpoint Depression Visibility Wind Speed Wind Dir Waves Ship Positions

Sunflower Satsuma

Last reported at 2017-Oct-19 11:29 UTC. Time now 2017-Oct-20 03:19 UTC.
Position N 33°55' E 134°52'.

Length 186 m; draft 6.4 m.

Type: Passenger vessel. MMSI: 431319000.

Date/timePositionNaut miles runAvg speedWind from/ knotsBaromVisibWave heightAir tempDewpointWater temp
2017-Oct-19 11:29N 33°55' E 134°52'1022.0
2017-Oct-19 11:00N 34°05' E 134°55'1121.9
2017-Oct-19 10:30N 34°16' E 134°58'1020.7
2017-Oct-19 10:01N 34°25' E 135°04'1122.7
2017-Oct-19 09:30N 34°32' E 135°15'918.5
2017-Oct-19 09:00N 34°38' E 135°24'1 0.8
2017-Oct-19 08:24N 34°38' E 135°24'0 0.0
2017-Oct-19 08:00N 34°38' E 135°24'0 0.0
2017-Oct-19 07:24N 34°38' E 135°24'0 0.0
2017-Oct-19 07:00N 34°38' E 135°24'0 0.0
2017-Oct-19 06:30N 34°38' E 135°24'0 0.0
2017-Oct-19 06:00N 34°38' E 135°24'0 0.0
2017-Oct-19 05:24N 34°38' E 135°24'0 0.0
2017-Oct-19 05:00N 34°38' E 135°24'0 0.0
2017-Oct-19 04:30N 34°38' E 135°24'0 0.0
2017-Oct-19 03:54N 34°38' E 135°24'0 0.0
2017-Oct-19 03:30N 34°38' E 135°24'1 2.0
2017-Oct-19 03:00N 34°38' E 135°23'612.5
2017-Oct-19 02:30N 34°35' E 135°16'917.2
2017-Oct-19 02:00N 34°34' E 135°06'918.5
2017-Oct-19 01:30N 34°35' E 134°55'38 1.0
2017-Oct-17 11:24N 33°57' E 134°55'922.9
2017-Oct-17 11:00N 34°06' E 134°56'1222.1
2017-Oct-17 10:27N 34°18' E 134°59'1021.2
2017-Oct-17 10:00N 34°27' E 135°03'1121.9
2017-Oct-17 09:30N 34°35' E 135°13'1019.0
2017-Oct-17 09:00N 34°38' E 135°24'1 1.6
2017-Oct-17 08:30N 34°38' E 135°24'0 0.0
2017-Oct-17 07:50N 34°38' E 135°24'0 0.0
2017-Oct-17 07:20N 34°38' E 135°24'0 0.0
2017-Oct-17 06:56N 34°38' E 135°24'0 0.0
2017-Oct-17 06:20N 34°38' E 135°24'0 0.0
2017-Oct-17 05:44N 34°38' E 135°24'0 0.0
2017-Oct-17 05:26N 34°38' E 135°24'0 0.0
2017-Oct-17 04:56N 34°38' E 135°24'0 0.0
2017-Oct-17 04:26N 34°38' E 135°24'0 0.0
2017-Oct-17 00:26N 34°38' E 135°24'2 3.9
2017-Oct-17 00:01N 34°38' E 135°23'1121.0
2017-Oct-16 23:30N 34°31' E 135°12'2221.9
2017-Oct-16 22:30N 34°12' E 134°58'1122.4
2017-Oct-16 22:00N 34°02' E 134°56'9 0.2
2017-Oct-15 10:33N 33°53' E 134°52'123.2
2017-Oct-15 10:29N 33°55' E 134°52'1123.1
2017-Oct-15 10:01N 34°05' E 134°55'1122.6
2017-Oct-15 09:31N 34°16' E 134°58'1021.0
2017-Oct-15 09:01N 34°25' E 135°05'1122.4
2017-Oct-15 08:30N 34°33' E 135°15'918.2
2017-Oct-15 08:00N 34°38' E 135°24'0 0.4
2017-Oct-15 07:30N 34°38' E 135°24'0 0.0
2017-Oct-15 06:45N 34°38' E 135°24'0 0.0
2017-Oct-15 06:27N 34°38' E 135°24'0 0.0
2017-Oct-15 05:57N 34°38' E 135°24'0 0.0
2017-Oct-15 05:27N 34°38' E 135°24'0 0.0
2017-Oct-15 04:51N 34°38' E 135°24'0 0.0
2017-Oct-15 04:27N 34°38' E 135°24'0 0.0
2017-Oct-15 03:45N 34°38' E 135°24'0 0.0
2017-Oct-15 03:27N 34°38' E 135°24'0 0.0
2017-Oct-15 02:51N 34°38' E 135°24'0 0.0
2017-Oct-15 02:27N 34°38' E 135°24'0 0.0
2017-Oct-15 01:57N 34°38' E 135°24'0 0.0
2017-Oct-15 01:27N 34°38' E 135°24'0 0.0
2017-Oct-15 00:57N 34°38' E 135°24'0 0.0
2017-Oct-15 00:28N 34°38' E 135°24'2 4.6
2017-Oct-15 00:00N 34°37' E 135°22'1020.7
2017-Oct-14 23:30N 34°30' E 135°13'1121.9
2017-Oct-14 22:59N 34°22' E 135°04'1020.9
2017-Oct-14 22:30N 34°12' E 134°59'19 0.5
2017-Oct-13 11:31N 33°54' E 134°52'123.8
2017-Oct-13 11:28N 33°55' E 134°53'1123.4
2017-Oct-13 11:00N 34°06' E 134°56'1223.7
2017-Oct-13 10:30N 34°18' E 134°59'1122.9
2017-Oct-13 10:01N 34°27' E 135°05'1122.3
2017-Oct-13 09:30N 34°36' E 135°15'817.1
2017-Oct-13 09:00N 34°38' E 135°24'0 0.0
2017-Oct-13 08:30N 34°38' E 135°24'0 0.0
2017-Oct-13 07:55N 34°38' E 135°24'0 0.0
2017-Oct-13 07:25N 34°38' E 135°24'0 0.0
2017-Oct-13 06:43N 34°38' E 135°24'0 0.0
2017-Oct-13 06:25N 34°38' E 135°24'0 0.0
2017-Oct-13 05:55N 34°38' E 135°24'0 0.0
2017-Oct-13 05:25N 34°38' E 135°24'0 0.0
2017-Oct-13 04:55N 34°38' E 135°24'0 0.0
2017-Oct-13 04:19N 34°38' E 135°24'0 0.0
2017-Oct-13 03:49N 34°38' E 135°24'0 0.0
2017-Oct-13 03:25N 34°38' E 135°24'0 0.0
2017-Oct-13 02:55N 34°38' E 135°24'0 0.0
2017-Oct-13 02:25N 34°38' E 135°24'0 0.0
2017-Oct-13 01:55N 34°38' E 135°24'0 0.0
2017-Oct-13 01:25N 34°38' E 135°24'0 0.0
2017-Oct-13 00:55N 34°38' E 135°24'0 0.0
2017-Oct-13 00:19N 34°38' E 135°24'0 0.0
2017-Oct-12 23:43N 34°38' E 135°24'0 0.0
2017-Oct-12 23:25N 34°38' E 135°24'0 0.0
2017-Oct-12 22:40N 34°38' E 135°24'0 1.6
2017-Oct-12 22:30N 34°38' E 135°24'713.8
2017-Oct-12 22:00N 34°34' E 135°18'1021.0
2017-Oct-12 21:30N 34°26' E 135°09'1020.6
2017-Oct-12 21:00N 34°19' E 135°00'1020.1
2017-Oct-12 20:31N 34°09' E 134°58'1120.9
2017-Oct-12 20:00N 33°59' E 134°55'46 1.0
2017-Oct-10 23:55N 34°38' E 135°24'0 0.0
2017-Oct-10 23:19N 34°38' E 135°24'0 0.0
2017-Oct-10 22:49N 34°38' E 135°24'0 1.0
2017-Oct-10 22:30N 34°38' E 135°24'815.8
2017-Oct-10 22:00N 34°33' E 135°17'1121.7
2017-Oct-10 21:30N 34°25' E 135°07'1121.5
2017-Oct-10 21:00N 34°17' E 134°59'1121.1
2017-Oct-10 20:30N 34°06' E 134°59'15 0.5
2017-Oct-09 11:32N 33°52' E 134°51'  
Track history (hours):
 
Tides and Currents Weather Stations Pressure Air Temp Water Temp Dewpoint Dewpoint Depression Visibility Wind Speed Wind Dir Waves Ship Positions

Sunflower Satsuma

Last reported at 2017-Oct-19 11:29 UTC. Time now 2017-Oct-20 03:19 UTC.
Position N 33°55' E 134°52'.

Length 186 m; draft 6.4 m.

Type: Passenger vessel. MMSI: 431319000.

Date/timePositionNaut miles runAvg speedWind from/ knotsBaromVisibWave heightAir tempDewpointWater temp
2017-Oct-19 11:29N 33°55' E 134°52'1022.0
2017-Oct-19 11:00N 34°05' E 134°55'1121.9
2017-Oct-19 10:30N 34°16' E 134°58'1020.7
2017-Oct-19 10:01N 34°25' E 135°04'1122.7
2017-Oct-19 09:30N 34°32' E 135°15'918.5
2017-Oct-19 09:00N 34°38' E 135°24'1 0.8
2017-Oct-19 08:24N 34°38' E 135°24'0 0.0
2017-Oct-19 08:00N 34°38' E 135°24'0 0.0
2017-Oct-19 07:24N 34°38' E 135°24'0 0.0
2017-Oct-19 07:00N 34°38' E 135°24'0 0.0
2017-Oct-19 06:30N 34°38' E 135°24'0 0.0
2017-Oct-19 06:00N 34°38' E 135°24'0 0.0
2017-Oct-19 05:24N 34°38' E 135°24'0 0.0
2017-Oct-19 05:00N 34°38' E 135°24'0 0.0
2017-Oct-19 04:30N 34°38' E 135°24'0 0.0
2017-Oct-19 03:54N 34°38' E 135°24'0 0.0
2017-Oct-19 03:30N 34°38' E 135°24'1 2.0
2017-Oct-19 03:00N 34°38' E 135°23'612.5
2017-Oct-19 02:30N 34°35' E 135°16'917.2
2017-Oct-19 02:00N 34°34' E 135°06'918.5
2017-Oct-19 01:30N 34°35' E 134°55'38 1.0
2017-Oct-17 11:24N 33°57' E 134°55'922.9
2017-Oct-17 11:00N 34°06' E 134°56'1222.1
2017-Oct-17 10:27N 34°18' E 134°59'1021.2
2017-Oct-17 10:00N 34°27' E 135°03'1121.9
2017-Oct-17 09:30N 34°35' E 135°13'1019.0
2017-Oct-17 09:00N 34°38' E 135°24'1 1.6
2017-Oct-17 08:30N 34°38' E 135°24'0 0.0
2017-Oct-17 07:50N 34°38' E 135°24'0 0.0
2017-Oct-17 07:20N 34°38' E 135°24'0 0.0
2017-Oct-17 06:56N 34°38' E 135°24'0 0.0
2017-Oct-17 06:20N 34°38' E 135°24'0 0.0
2017-Oct-17 05:44N 34°38' E 135°24'0 0.0
2017-Oct-17 05:26N 34°38' E 135°24'0 0.0
2017-Oct-17 04:56N 34°38' E 135°24'0 0.0
2017-Oct-17 04:26N 34°38' E 135°24'0 0.0
2017-Oct-17 00:26N 34°38' E 135°24'2 3.9
2017-Oct-17 00:01N 34°38' E 135°23'1121.0
2017-Oct-16 23:30N 34°31' E 135°12'2221.9
2017-Oct-16 22:30N 34°12' E 134°58'1122.4
2017-Oct-16 22:00N 34°02' E 134°56'9 0.2
2017-Oct-15 10:33N 33°53' E 134°52'123.2
2017-Oct-15 10:29N 33°55' E 134°52'1123.1
2017-Oct-15 10:01N 34°05' E 134°55'1122.6
2017-Oct-15 09:31N 34°16' E 134°58'1021.0
2017-Oct-15 09:01N 34°25' E 135°05'1122.4
2017-Oct-15 08:30N 34°33' E 135°15'918.2
2017-Oct-15 08:00N 34°38' E 135°24'0 0.4
2017-Oct-15 07:30N 34°38' E 135°24'0 0.0
2017-Oct-15 06:45N 34°38' E 135°24'0 0.0
2017-Oct-15 06:27N 34°38' E 135°24'0 0.0
2017-Oct-15 05:57N 34°38' E 135°24'0 0.0
2017-Oct-15 05:27N 34°38' E 135°24'0 0.0
2017-Oct-15 04:51N 34°38' E 135°24'0 0.0
2017-Oct-15 04:27N 34°38' E 135°24'0 0.0
2017-Oct-15 03:45N 34°38' E 135°24'0 0.0
2017-Oct-15 03:27N 34°38' E 135°24'0 0.0
2017-Oct-15 02:51N 34°38' E 135°24'0 0.0
2017-Oct-15 02:27N 34°38' E 135°24'0 0.0
2017-Oct-15 01:57N 34°38' E 135°24'0 0.0
2017-Oct-15 01:27N 34°38' E 135°24'0 0.0
2017-Oct-15 00:57N 34°38' E 135°24'0 0.0
2017-Oct-15 00:28N 34°38' E 135°24'2 4.6
2017-Oct-15 00:00N 34°37' E 135°22'1020.7
2017-Oct-14 23:30N 34°30' E 135°13'1121.9
2017-Oct-14 22:59N 34°22' E 135°04'1020.9
2017-Oct-14 22:30N 34°12' E 134°59'19 0.5
2017-Oct-13 11:31N 33°54' E 134°52'123.8
2017-Oct-13 11:28N 33°55' E 134°53'1123.4
2017-Oct-13 11:00N 34°06' E 134°56'1223.7
2017-Oct-13 10:30N 34°18' E 134°59'1122.9
2017-Oct-13 10:01N 34°27' E 135°05'1122.3
2017-Oct-13 09:30N 34°36' E 135°15'817.1
2017-Oct-13 09:00N 34°38' E 135°24'0 0.0
2017-Oct-13 08:30N 34°38' E 135°24'0 0.0
2017-Oct-13 07:55N 34°38' E 135°24'0 0.0
2017-Oct-13 07:25N 34°38' E 135°24'0 0.0
2017-Oct-13 06:43N 34°38' E 135°24'0 0.0
2017-Oct-13 06:25N 34°38' E 135°24'0 0.0
2017-Oct-13 05:55N 34°38' E 135°24'0 0.0
2017-Oct-13 05:25N 34°38' E 135°24'0 0.0
2017-Oct-13 04:55N 34°38' E 135°24'0 0.0
2017-Oct-13 04:19N 34°38' E 135°24'0 0.0
2017-Oct-13 03:49N 34°38' E 135°24'0 0.0
2017-Oct-13 03:25N 34°38' E 135°24'0 0.0
2017-Oct-13 02:55N 34°38' E 135°24'0 0.0
2017-Oct-13 02:25N 34°38' E 135°24'0 0.0
2017-Oct-13 01:55N 34°38' E 135°24'0 0.0
2017-Oct-13 01:25N 34°38' E 135°24'0 0.0
2017-Oct-13 00:55N 34°38' E 135°24'0 0.0
2017-Oct-13 00:19N 34°38' E 135°24'0 0.0
2017-Oct-12 23:43N 34°38' E 135°24'0 0.0
2017-Oct-12 23:25N 34°38' E 135°24'0 0.0
2017-Oct-12 22:40N 34°38' E 135°24'0 1.6
2017-Oct-12 22:30N 34°38' E 135°24'713.8
2017-Oct-12 22:00N 34°34' E 135°18'1021.0
2017-Oct-12 21:30N 34°26' E 135°09'1020.6
2017-Oct-12 21:00N 34°19' E 135°00'1020.1
2017-Oct-12 20:31N 34°09' E 134°58'1120.9
2017-Oct-12 20:00N 33°59' E 134°55'46 1.0
2017-Oct-10 23:55N 34°38' E 135°24'0 0.0
2017-Oct-10 23:19N 34°38' E 135°24'0 0.0
2017-Oct-10 22:49N 34°38' E 135°24'0 1.0
2017-Oct-10 22:30N 34°38' E 135°24'815.8
2017-Oct-10 22:00N 34°33' E 135°17'1121.7
2017-Oct-10 21:30N 34°25' E 135°07'1121.5
2017-Oct-10 21:00N 34°17' E 134°59'1121.1
2017-Oct-10 20:30N 34°06' E 134°59'15 0.5
2017-Oct-09 11:32N 33°52' E 134°51'  

Dump ship's entire track history